sensor_id;sensor_type;location;lat;lon;timestamp;temperature;humidity
6377;DHT22;3221;48.858;10.128;2022-12-26T00:00:39;8.70;99.90
6377;DHT22;3221;48.858;10.128;2022-12-26T00:03:06;8.60;99.90
6377;DHT22;3221;48.858;10.128;2022-12-26T00:05:38;8.80;99.90
6377;DHT22;3221;48.858;10.128;2022-12-26T00:08:05;8.60;99.90
6377;DHT22;3221;48.858;10.128;2022-12-26T00:10:33;8.80;99.90
6377;DHT22;3221;48.858;10.128;2022-12-26T00:13:00;8.60;99.90
6377;DHT22;3221;48.858;10.128;2022-12-26T00:15:47;8.40;99.90
6377;DHT22;3221;48.858;10.128;2022-12-26T00:18:14;8.60;99.90
6377;DHT22;3221;48.858;10.128;2022-12-26T00:20:40;8.60;99.90
6377;DHT22;3221;48.858;10.128;2022-12-26T00:23:07;8.60;99.90
6377;DHT22;3221;48.858;10.128;2022-12-26T00:25:34;8.60;99.90
6377;DHT22;3221;48.858;10.128;2022-12-26T00:28:01;8.60;99.90
6377;DHT22;3221;48.858;10.128;2022-12-26T00:30:28;8.70;99.90
6377;DHT22;3221;48.858;10.128;2022-12-26T00:32:55;8.60;99.90
6377;DHT22;3221;48.858;10.128;2022-12-26T00:35:22;8.60;99.90
6377;DHT22;3221;48.858;10.128;2022-12-26T00:37:49;8.50;99.90
6377;DHT22;3221;48.858;10.128;2022-12-26T00:40:17;8.60;99.90
6377;DHT22;3221;48.858;10.128;2022-12-26T00:42:44;8.70;99.90
6377;DHT22;3221;48.858;10.128;2022-12-26T00:45:11;8.60;99.90
6377;DHT22;3221;48.858;10.128;2022-12-26T00:47:38;8.60;99.90
6377;DHT22;3221;48.858;10.128;2022-12-26T00:50:05;8.50;99.90
6377;DHT22;3221;48.858;10.128;2022-12-26T00:52:41;8.60;99.90
6377;DHT22;3221;48.858;10.128;2022-12-26T00:55:08;8.60;99.90
6377;DHT22;3221;48.858;10.128;2022-12-26T00:57:35;8.60;99.90
6377;DHT22;3221;48.858;10.128;2022-12-26T01:00:03;8.60;99.90
6377;DHT22;3221;48.858;10.128;2022-12-26T01:02:30;8.60;99.90
6377;DHT22;3221;48.858;10.128;2022-12-26T01:05:07;8.50;99.90
6377;DHT22;3221;48.858;10.128;2022-12-26T01:07:35;8.60;99.90
6377;DHT22;3221;48.858;10.128;2022-12-26T01:10:23;8.50;99.90
6377;DHT22;3221;48.858;10.128;2022-12-26T01:12:50;8.50;99.90
6377;DHT22;3221;48.858;10.128;2022-12-26T01:15:17;8.60;99.90
6377;DHT22;3221;48.858;10.128;2022-12-26T01:17:44;8.40;99.90
6377;DHT22;3221;48.858;10.128;2022-12-26T01:20:12;8.40;99.90
6377;DHT22;3221;48.858;10.128;2022-12-26T01:22:39;8.40;99.90
6377;DHT22;3221;48.858;10.128;2022-12-26T01:25:06;8.40;99.90
6377;DHT22;3221;48.858;10.128;2022-12-26T01:27:33;8.40;99.90
6377;DHT22;3221;48.858;10.128;2022-12-26T01:30:00;8.40;99.90
6377;DHT22;3221;48.858;10.128;2022-12-26T01:32:27;8.40;99.90
6377;DHT22;3221;48.858;10.128;2022-12-26T01:34:53;8.40;99.90
6377;DHT22;3221;48.858;10.128;2022-12-26T01:37:21;8.50;99.90
6377;DHT22;3221;48.858;10.128;2022-12-26T01:39:49;8.40;99.90
6377;DHT22;3221;48.858;10.128;2022-12-26T01:42:20;8.50;99.90
6377;DHT22;3221;48.858;10.128;2022-12-26T01:44:55;8.40;99.90
6377;DHT22;3221;48.858;10.128;2022-12-26T01:50:27;8.50;99.90
6377;DHT22;3221;48.858;10.128;2022-12-26T01:53:19;8.50;99.90
6377;DHT22;3221;48.858;10.128;2022-12-26T01:55:48;8.40;99.90
6377;DHT22;3221;48.858;10.128;2022-12-26T01:58:20;8.50;99.90
6377;DHT22;3221;48.858;10.128;2022-12-26T02:00:50;8.30;99.90
6377;DHT22;3221;48.858;10.128;2022-12-26T02:03:17;8.40;99.90
6377;DHT22;3221;48.858;10.128;2022-12-26T02:06:03;8.40;99.90
6377;DHT22;3221;48.858;10.128;2022-12-26T02:08:33;8.40;99.90
6377;DHT22;3221;48.858;10.128;2022-12-26T02:11:06;8.40;99.90
6377;DHT22;3221;48.858;10.128;2022-12-26T02:13:36;8.40;99.90
6377;DHT22;3221;48.858;10.128;2022-12-26T02:16:05;8.40;99.90
6377;DHT22;3221;48.858;10.128;2022-12-26T02:18:32;8.30;99.90
6377;DHT22;3221;48.858;10.128;2022-12-26T02:31:48;8.40;99.90
6377;DHT22;3221;48.858;10.128;2022-12-26T02:34:39;8.50;99.90
6377;DHT22;3221;48.858;10.128;2022-12-26T02:40:36;8.50;99.90
6377;DHT22;3221;48.858;10.128;2022-12-26T02:43:20;8.60;99.90
6377;DHT22;3221;48.858;10.128;2022-12-26T02:45:58;8.50;99.90
6377;DHT22;3221;48.858;10.128;2022-12-26T02:52:10;8.40;99.90
6377;DHT22;3221;48.858;10.128;2022-12-26T02:55:03;8.30;99.90
6377;DHT22;3221;48.858;10.128;2022-12-26T02:58:33;8.30;99.90
6377;DHT22;3221;48.858;10.128;2022-12-26T03:01:21;8.40;99.90
6377;DHT22;3221;48.858;10.128;2022-12-26T03:04:11;8.40;99.90
6377;DHT22;3221;48.858;10.128;2022-12-26T03:07:00;8.50;99.90
6377;DHT22;3221;48.858;10.128;2022-12-26T03:09:48;8.40;99.90
6377;DHT22;3221;48.858;10.128;2022-12-26T03:12:44;8.50;99.90
6377;DHT22;3221;48.858;10.128;2022-12-26T03:15:33;8.50;99.90
6377;DHT22;3221;48.858;10.128;2022-12-26T03:18:24;8.50;99.90
6377;DHT22;3221;48.858;10.128;2022-12-26T03:21:14;8.50;99.90
6377;DHT22;3221;48.858;10.128;2022-12-26T03:23:45;8.50;99.90
6377;DHT22;3221;48.858;10.128;2022-12-26T03:26:20;8.40;99.90
6377;DHT22;3221;48.858;10.128;2022-12-26T03:29:12;8.50;99.90
6377;DHT22;3221;48.858;10.128;2022-12-26T03:32:01;8.50;99.90
6377;DHT22;3221;48.858;10.128;2022-12-26T03:34:28;8.50;99.90
6377;DHT22;3221;48.858;10.128;2022-12-26T03:37:21;8.50;99.90
6377;DHT22;3221;48.858;10.128;2022-12-26T03:40:35;8.40;99.90
6377;DHT22;3221;48.858;10.128;2022-12-26T03:49:30;8.40;99.90
6377;DHT22;3221;48.858;10.128;2022-12-26T03:52:25;8.40;99.90
6377;DHT22;3221;48.858;10.128;2022-12-26T03:55:21;8.50;99.90
6377;DHT22;3221;48.858;10.128;2022-12-26T03:58:33;8.50;99.90
6377;DHT22;3221;48.858;10.128;2022-12-26T04:01:23;8.40;99.90
6377;DHT22;3221;48.858;10.128;2022-12-26T04:04:13;8.50;99.90
6377;DHT22;3221;48.858;10.128;2022-12-26T04:07:09;8.40;99.90
6377;DHT22;3221;48.858;10.128;2022-12-26T04:10:30;8.40;99.90
6377;DHT22;3221;48.858;10.128;2022-12-26T04:23:03;8.60;99.90
6377;DHT22;3221;48.858;10.128;2022-12-26T04:25:57;8.50;99.90
6377;DHT22;3221;48.858;10.128;2022-12-26T04:28:43;8.60;99.90
6377;DHT22;3221;48.858;10.128;2022-12-26T04:34:32;8.40;99.90
6377;DHT22;3221;48.858;10.128;2022-12-26T04:37:24;8.40;99.90
6377;DHT22;3221;48.858;10.128;2022-12-26T04:40:18;8.40;99.90
6377;DHT22;3221;48.858;10.128;2022-12-26T04:43:06;8.50;99.90
6377;DHT22;3221;48.858;10.128;2022-12-26T04:46:14;8.50;99.90
6377;DHT22;3221;48.858;10.128;2022-12-26T04:48:43;8.50;99.90
6377;DHT22;3221;48.858;10.128;2022-12-26T04:51:29;8.50;99.90
6377;DHT22;3221;48.858;10.128;2022-12-26T04:53:56;8.50;99.90
6377;DHT22;3221;48.858;10.128;2022-12-26T04:56:23;8.50;99.90
6377;DHT22;3221;48.858;10.128;2022-12-26T04:58:50;8.50;99.90
6377;DHT22;3221;48.858;10.128;2022-12-26T05:01:17;8.60;99.90
6377;DHT22;3221;48.858;10.128;2022-12-26T05:04:03;8.50;99.90
6377;DHT22;3221;48.858;10.128;2022-12-26T05:06:48;8.50;99.90
6377;DHT22;3221;48.858;10.128;2022-12-26T05:09:34;8.50;99.90
6377;DHT22;3221;48.858;10.128;2022-12-26T05:12:06;8.50;99.90
6377;DHT22;3221;48.858;10.128;2022-12-26T05:14:34;8.50;99.90
6377;DHT22;3221;48.858;10.128;2022-12-26T05:17:03;8.60;99.90
6377;DHT22;3221;48.858;10.128;2022-12-26T05:19:48;8.50;99.90
6377;DHT22;3221;48.858;10.128;2022-12-26T05:22:37;8.50;99.90
6377;DHT22;3221;48.858;10.128;2022-12-26T05:25:26;8.60;99.90
6377;DHT22;3221;48.858;10.128;2022-12-26T05:28:14;8.60;99.90
6377;DHT22;3221;48.858;10.128;2022-12-26T05:31:00;8.50;99.90
6377;DHT22;3221;48.858;10.128;2022-12-26T05:33:27;8.50;99.90
6377;DHT22;3221;48.858;10.128;2022-12-26T05:36:14;8.40;99.90
6377;DHT22;3221;48.858;10.128;2022-12-26T05:38:42;8.50;99.90
6377;DHT22;3221;48.858;10.128;2022-12-26T05:41:08;8.40;99.90
6377;DHT22;3221;48.858;10.128;2022-12-26T05:43:35;8.50;99.90
6377;DHT22;3221;48.858;10.128;2022-12-26T05:46:02;8.50;99.90
6377;DHT22;3221;48.858;10.128;2022-12-26T05:48:29;8.40;99.90
6377;DHT22;3221;48.858;10.128;2022-12-26T05:51:03;8.50;99.90
6377;DHT22;3221;48.858;10.128;2022-12-26T05:53:31;8.40;99.90
6377;DHT22;3221;48.858;10.128;2022-12-26T05:56:12;8.50;99.90
6377;DHT22;3221;48.858;10.128;2022-12-26T05:58:40;8.60;99.90
6377;DHT22;3221;48.858;10.128;2022-12-26T06:01:13;8.40;99.90
6377;DHT22;3221;48.858;10.128;2022-12-26T06:03:41;8.50;99.90
6377;DHT22;3221;48.858;10.128;2022-12-26T06:06:11;8.50;99.90
6377;DHT22;3221;48.858;10.128;2022-12-26T06:08:39;8.60;99.90
6377;DHT22;3221;48.858;10.128;2022-12-26T06:11:09;8.50;99.90
6377;DHT22;3221;48.858;10.128;2022-12-26T06:13:37;8.60;99.90
6377;DHT22;3221;48.858;10.128;2022-12-26T06:16:09;8.50;99.90
6377;DHT22;3221;48.858;10.128;2022-12-26T06:18:37;8.50;99.90
6377;DHT22;3221;48.858;10.128;2022-12-26T06:21:12;8.40;99.90
6377;DHT22;3221;48.858;10.128;2022-12-26T06:23:41;8.40;99.90
6377;DHT22;3221;48.858;10.128;2022-12-26T06:26:08;8.70;99.90
6377;DHT22;3221;48.858;10.128;2022-12-26T06:28:39;8.50;99.90
6377;DHT22;3221;48.858;10.128;2022-12-26T06:31:11;8.40;99.90
6377;DHT22;3221;48.858;10.128;2022-12-26T06:33:40;8.40;99.90
6377;DHT22;3221;48.858;10.128;2022-12-26T06:36:13;8.50;99.90
6377;DHT22;3221;48.858;10.128;2022-12-26T06:38:40;8.60;99.90
6377;DHT22;3221;48.858;10.128;2022-12-26T06:41:10;8.60;99.90
6377;DHT22;3221;48.858;10.128;2022-12-26T06:43:37;8.70;99.90
6377;DHT22;3221;48.858;10.128;2022-12-26T06:46:05;8.70;99.90
6377;DHT22;3221;48.858;10.128;2022-12-26T06:48:33;8.70;99.90
6377;DHT22;3221;48.858;10.128;2022-12-26T06:51:07;8.60;99.90
6377;DHT22;3221;48.858;10.128;2022-12-26T06:53:35;8.60;99.90
6377;DHT22;3221;48.858;10.128;2022-12-26T06:56:22;8.60;99.90
6377;DHT22;3221;48.858;10.128;2022-12-26T06:59:02;8.60;99.90
6377;DHT22;3221;48.858;10.128;2022-12-26T07:01:31;8.60;99.90
6377;DHT22;3221;48.858;10.128;2022-12-26T07:03:59;8.60;99.90
6377;DHT22;3221;48.858;10.128;2022-12-26T07:06:34;8.60;99.90
6377;DHT22;3221;48.858;10.128;2022-12-26T07:09:05;8.50;99.90
6377;DHT22;3221;48.858;10.128;2022-12-26T07:11:35;8.60;99.90
6377;DHT22;3221;48.858;10.128;2022-12-26T07:14:03;8.60;99.90
6377;DHT22;3221;48.858;10.128;2022-12-26T07:16:31;8.70;99.90
6377;DHT22;3221;48.858;10.128;2022-12-26T07:18:59;8.70;99.90
6377;DHT22;3221;48.858;10.128;2022-12-26T07:21:26;8.60;99.90
6377;DHT22;3221;48.858;10.128;2022-12-26T07:23:54;8.60;99.90
6377;DHT22;3221;48.858;10.128;2022-12-26T07:26:21;8.60;99.90
6377;DHT22;3221;48.858;10.128;2022-12-26T07:28:55;8.50;99.90
6377;DHT22;3221;48.858;10.128;2022-12-26T07:31:23;8.50;99.90
6377;DHT22;3221;48.858;10.128;2022-12-26T07:33:53;8.60;99.90
6377;DHT22;3221;48.858;10.128;2022-12-26T07:36:20;8.60;99.90
6377;DHT22;3221;48.858;10.128;2022-12-26T07:38:47;8.50;99.90
6377;DHT22;3221;48.858;10.128;2022-12-26T07:41:14;8.50;99.90
6377;DHT22;3221;48.858;10.128;2022-12-26T07:44:00;8.50;99.90
6377;DHT22;3221;48.858;10.128;2022-12-26T07:46:27;8.60;99.90
6377;DHT22;3221;48.858;10.128;2022-12-26T07:48:53;8.70;99.90
6377;DHT22;3221;48.858;10.128;2022-12-26T07:51:20;8.70;99.90
6377;DHT22;3221;48.858;10.128;2022-12-26T07:53:47;8.70;99.90
6377;DHT22;3221;48.858;10.128;2022-12-26T07:56:14;8.60;99.90
6377;DHT22;3221;48.858;10.128;2022-12-26T07:58:41;8.50;99.90
6377;DHT22;3221;48.858;10.128;2022-12-26T08:01:08;8.60;99.90
6377;DHT22;3221;48.858;10.128;2022-12-26T08:03:35;8.50;99.90
6377;DHT22;3221;48.858;10.128;2022-12-26T08:06:02;8.50;99.90
6377;DHT22;3221;48.858;10.128;2022-12-26T08:08:29;8.60;99.90
6377;DHT22;3221;48.858;10.128;2022-12-26T08:11:01;8.60;99.90
6377;DHT22;3221;48.858;10.128;2022-12-26T08:13:28;8.60;99.90
6377;DHT22;3221;48.858;10.128;2022-12-26T08:15:55;8.50;99.90
6377;DHT22;3221;48.858;10.128;2022-12-26T08:18:23;8.40;99.90
6377;DHT22;3221;48.858;10.128;2022-12-26T08:20:50;8.50;99.90
6377;DHT22;3221;48.858;10.128;2022-12-26T08:23:17;8.60;99.90
6377;DHT22;3221;48.858;10.128;2022-12-26T08:25:44;8.50;99.90
6377;DHT22;3221;48.858;10.128;2022-12-26T08:28:11;8.40;99.90
6377;DHT22;3221;48.858;10.128;2022-12-26T08:30:39;8.50;99.90
6377;DHT22;3221;48.858;10.128;2022-12-26T08:33:08;8.50;99.90
6377;DHT22;3221;48.858;10.128;2022-12-26T08:35:36;8.50;99.90
6377;DHT22;3221;48.858;10.128;2022-12-26T08:38:04;8.60;99.90
6377;DHT22;3221;48.858;10.128;2022-12-26T08:40:31;8.60;99.90
6377;DHT22;3221;48.858;10.128;2022-12-26T08:43:10;8.50;99.90
6377;DHT22;3221;48.858;10.128;2022-12-26T08:48:24;8.50;99.90
6377;DHT22;3221;48.858;10.128;2022-12-26T08:51:06;8.60;99.90
6377;DHT22;3221;48.858;10.128;2022-12-26T08:53:35;8.50;99.90
6377;DHT22;3221;48.858;10.128;2022-12-26T08:56:04;8.60;99.90
6377;DHT22;3221;48.858;10.128;2022-12-26T08:58:32;8.40;99.90
6377;DHT22;3221;48.858;10.128;2022-12-26T09:03:33;8.30;99.90
6377;DHT22;3221;48.858;10.128;2022-12-26T09:06:00;8.40;99.90
6377;DHT22;3221;48.858;10.128;2022-12-26T09:08:33;8.40;99.90
6377;DHT22;3221;48.858;10.128;2022-12-26T09:11:04;8.40;99.90
6377;DHT22;3221;48.858;10.128;2022-12-26T09:13:32;8.40;99.90
6377;DHT22;3221;48.858;10.128;2022-12-26T09:16:23;8.40;99.90
6377;DHT22;3221;48.858;10.128;2022-12-26T09:18:58;8.30;99.90
6377;DHT22;3221;48.858;10.128;2022-12-26T09:21:26;8.40;99.90
6377;DHT22;3221;48.858;10.128;2022-12-26T09:23:57;8.60;99.90
6377;DHT22;3221;48.858;10.128;2022-12-26T09:26:25;8.40;99.90
6377;DHT22;3221;48.858;10.128;2022-12-26T09:28:52;8.30;99.90
6377;DHT22;3221;48.858;10.128;2022-12-26T09:31:22;8.30;99.90
6377;DHT22;3221;48.858;10.128;2022-12-26T09:33:50;8.50;99.90
6377;DHT22;3221;48.858;10.128;2022-12-26T09:36:21;8.30;99.90
6377;DHT22;3221;48.858;10.128;2022-12-26T09:38:49;8.30;99.90
6377;DHT22;3221;48.858;10.128;2022-12-26T09:49:29;8.30;99.90
6377;DHT22;3221;48.858;10.128;2022-12-26T09:52:14;8.30;99.90
6377;DHT22;3221;48.858;10.128;2022-12-26T09:54:53;8.30;99.90
6377;DHT22;3221;48.858;10.128;2022-12-26T09:57:39;8.40;99.90
6377;DHT22;3221;48.858;10.128;2022-12-26T10:00:16;8.40;99.90
6377;DHT22;3221;48.858;10.128;2022-12-26T10:02:48;8.40;99.90
6377;DHT22;3221;48.858;10.128;2022-12-26T10:05:18;8.50;99.90
6377;DHT22;3221;48.858;10.128;2022-12-26T10:07:50;8.20;99.90
6377;DHT22;3221;48.858;10.128;2022-12-26T10:13:15;8.30;99.90
6377;DHT22;3221;48.858;10.128;2022-12-26T10:15:51;8.20;99.90
6377;DHT22;3221;48.858;10.128;2022-12-26T10:19:01;8.10;99.90
6377;DHT22;3221;48.858;10.128;2022-12-26T10:22:06;8.20;99.90
6377;DHT22;3221;48.858;10.128;2022-12-26T10:24:36;8.10;99.90
6377;DHT22;3221;48.858;10.128;2022-12-26T10:27:17;8.10;99.90
6377;DHT22;3221;48.858;10.128;2022-12-26T10:30:03;8.20;99.90
6377;DHT22;3221;48.858;10.128;2022-12-26T10:32:37;8.20;99.90
6377;DHT22;3221;48.858;10.128;2022-12-26T10:35:32;8.20;99.90
6377;DHT22;3221;48.858;10.128;2022-12-26T10:38:23;8.30;99.90
6377;DHT22;3221;48.858;10.128;2022-12-26T10:40:57;8.30;99.90
6377;DHT22;3221;48.858;10.128;2022-12-26T10:43:30;8.30;99.90
6377;DHT22;3221;48.858;10.128;2022-12-26T10:48:26;8.20;99.90
6377;DHT22;3221;48.858;10.128;2022-12-26T10:50:54;8.30;99.90
6377;DHT22;3221;48.858;10.128;2022-12-26T10:53:22;8.40;99.90
6377;DHT22;3221;48.858;10.128;2022-12-26T10:55:48;8.40;99.90
6377;DHT22;3221;48.858;10.128;2022-12-26T10:58:27;8.30;99.90
6377;DHT22;3221;48.858;10.128;2022-12-26T11:00:54;8.30;99.90
6377;DHT22;3221;48.858;10.128;2022-12-26T11:03:21;8.30;99.90
6377;DHT22;3221;48.858;10.128;2022-12-26T11:05:54;8.30;99.90
6377;DHT22;3221;48.858;10.128;2022-12-26T11:08:39;8.30;99.90
6377;DHT22;3221;48.858;10.128;2022-12-26T11:11:19;8.30;99.90
6377;DHT22;3221;48.858;10.128;2022-12-26T11:13:51;8.30;99.90
6377;DHT22;3221;48.858;10.128;2022-12-26T11:16:33;8.20;99.90
6377;DHT22;3221;48.858;10.128;2022-12-26T11:19:01;8.30;99.90
6377;DHT22;3221;48.858;10.128;2022-12-26T11:21:30;8.30;99.90
6377;DHT22;3221;48.858;10.128;2022-12-26T11:26:34;8.30;99.90
6377;DHT22;3221;48.858;10.128;2022-12-26T11:29:18;8.20;99.90
6377;DHT22;3221;48.858;10.128;2022-12-26T11:32:00;8.30;99.90
6377;DHT22;3221;48.858;10.128;2022-12-26T11:34:36;8.30;99.90
6377;DHT22;3221;48.858;10.128;2022-12-26T11:37:05;8.30;99.90
6377;DHT22;3221;48.858;10.128;2022-12-26T11:39:36;8.30;99.90
6377;DHT22;3221;48.858;10.128;2022-12-26T11:42:10;8.30;99.90
6377;DHT22;3221;48.858;10.128;2022-12-26T11:44:41;8.30;99.90
6377;DHT22;3221;48.858;10.128;2022-12-26T11:47:12;8.20;99.90
6377;DHT22;3221;48.858;10.128;2022-12-26T11:50:04;8.30;99.90
6377;DHT22;3221;48.858;10.128;2022-12-26T12:03:30;8.40;99.90
6377;DHT22;3221;48.858;10.128;2022-12-26T12:16:38;8.30;99.90
6377;DHT22;3221;48.858;10.128;2022-12-26T12:36:38;8.40;99.90
6377;DHT22;3221;48.858;10.128;2022-12-26T12:39:11;8.60;99.90
6377;DHT22;3221;48.858;10.128;2022-12-26T12:45:21;8.40;99.90
6377;DHT22;3221;48.858;10.128;2022-12-26T12:48:24;8.40;99.90
6377;DHT22;3221;48.858;10.128;2022-12-26T12:56:45;8.40;99.90
6377;DHT22;3221;48.858;10.128;2022-12-26T13:01:54;8.40;99.90
6377;DHT22;3221;48.858;10.128;2022-12-26T13:04:23;8.40;99.90
6377;DHT22;3221;48.858;10.128;2022-12-26T13:06:58;8.40;99.90
6377;DHT22;3221;48.858;10.128;2022-12-26T13:09:44;8.40;99.90
6377;DHT22;3221;48.858;10.128;2022-12-26T13:12:20;8.40;99.90
6377;DHT22;3221;48.858;10.128;2022-12-26T13:14:58;8.40;99.90
6377;DHT22;3221;48.858;10.128;2022-12-26T13:17:39;8.40;99.90
6377;DHT22;3221;48.858;10.128;2022-12-26T13:20:21;8.40;99.90
6377;DHT22;3221;48.858;10.128;2022-12-26T13:22:54;8.40;99.90
6377;DHT22;3221;48.858;10.128;2022-12-26T13:25:45;8.60;99.90
6377;DHT22;3221;48.858;10.128;2022-12-26T13:28:18;8.40;99.90
6377;DHT22;3221;48.858;10.128;2022-12-26T13:30:54;8.40;99.90
6377;DHT22;3221;48.858;10.128;2022-12-26T13:33:22;8.40;99.90
6377;DHT22;3221;48.858;10.128;2022-12-26T13:36:01;8.30;99.90
6377;DHT22;3221;48.858;10.128;2022-12-26T13:41:20;8.40;99.90
6377;DHT22;3221;48.858;10.128;2022-12-26T13:44:22;8.40;99.90
6377;DHT22;3221;48.858;10.128;2022-12-26T13:49:35;8.40;99.90
6377;DHT22;3221;48.858;10.128;2022-12-26T13:57:40;8.40;99.90
6377;DHT22;3221;48.858;10.128;2022-12-26T14:00:24;8.40;99.90
6377;DHT22;3221;48.858;10.128;2022-12-26T14:03:27;8.40;99.90
6377;DHT22;3221;48.858;10.128;2022-12-26T14:09:31;8.40;99.90
6377;DHT22;3221;48.858;10.128;2022-12-26T14:20:16;8.40;99.90
6377;DHT22;3221;48.858;10.128;2022-12-26T14:23:14;8.30;99.90
6377;DHT22;3221;48.858;10.128;2022-12-26T14:33:57;8.30;99.90
6377;DHT22;3221;48.858;10.128;2022-12-26T14:36:42;8.30;99.90
6377;DHT22;3221;48.858;10.128;2022-12-26T14:44:57;8.30;99.90
6377;DHT22;3221;48.858;10.128;2022-12-26T14:55:52;8.20;99.90
6377;DHT22;3221;48.858;10.128;2022-12-26T15:19:50;8.20;99.90
6377;DHT22;3221;48.858;10.128;2022-12-26T15:37:18;8.20;99.90
6377;DHT22;3221;48.858;10.128;2022-12-26T15:45:44;8.20;99.90
6377;DHT22;3221;48.858;10.128;2022-12-26T15:51:12;8.30;99.90
6377;DHT22;3221;48.858;10.128;2022-12-26T15:54:13;8.30;99.90
6377;DHT22;3221;48.858;10.128;2022-12-26T16:01:57;8.30;99.90
6377;DHT22;3221;48.858;10.128;2022-12-26T16:04:33;8.20;99.90
6377;DHT22;3221;48.858;10.128;2022-12-26T16:10:28;8.20;99.90
6377;DHT22;3221;48.858;10.128;2022-12-26T16:15:32;8.20;99.90
6377;DHT22;3221;48.858;10.128;2022-12-26T16:18:25;8.10;99.90
6377;DHT22;3221;48.858;10.128;2022-12-26T16:20:54;8.10;99.90
6377;DHT22;3221;48.858;10.128;2022-12-26T16:23:42;8.10;99.90
6377;DHT22;3221;48.858;10.128;2022-12-26T16:26:38;8.10;99.90
6377;DHT22;3221;48.858;10.128;2022-12-26T16:29:06;8.10;99.90
6377;DHT22;3221;48.858;10.128;2022-12-26T16:31:33;8.30;99.90
6377;DHT22;3221;48.858;10.128;2022-12-26T16:34:00;8.20;99.90
6377;DHT22;3221;48.858;10.128;2022-12-26T16:36:28;8.20;99.90
6377;DHT22;3221;48.858;10.128;2022-12-26T16:38:57;8.20;99.90
6377;DHT22;3221;48.858;10.128;2022-12-26T16:41:26;8.20;99.90
6377;DHT22;3221;48.858;10.128;2022-12-26T16:43:55;8.20;99.90
6377;DHT22;3221;48.858;10.128;2022-12-26T16:46:26;8.20;99.90
6377;DHT22;3221;48.858;10.128;2022-12-26T16:48:57;8.20;99.90
6377;DHT22;3221;48.858;10.128;2022-12-26T16:51:34;8.30;99.90
6377;DHT22;3221;48.858;10.128;2022-12-26T16:57:02;8.20;99.90
6377;DHT22;3221;48.858;10.128;2022-12-26T16:59:49;8.20;99.90
6377;DHT22;3221;48.858;10.128;2022-12-26T17:02:27;8.20;99.90
6377;DHT22;3221;48.858;10.128;2022-12-26T17:05:05;8.30;99.90
6377;DHT22;3221;48.858;10.128;2022-12-26T17:07:37;8.30;99.90
6377;DHT22;3221;48.858;10.128;2022-12-26T17:10:05;8.30;99.90
6377;DHT22;3221;48.858;10.128;2022-12-26T17:12:39;8.20;99.90
6377;DHT22;3221;48.858;10.128;2022-12-26T17:15:06;8.30;99.90
6377;DHT22;3221;48.858;10.128;2022-12-26T17:17:36;8.20;99.90
6377;DHT22;3221;48.858;10.128;2022-12-26T17:22:56;8.20;99.90
6377;DHT22;3221;48.858;10.128;2022-12-26T17:25:28;8.20;99.90
6377;DHT22;3221;48.858;10.128;2022-12-26T17:30:53;8.20;99.90
6377;DHT22;3221;48.858;10.128;2022-12-26T17:33:26;8.10;99.90
6377;DHT22;3221;48.858;10.128;2022-12-26T17:36:01;8.10;99.90
6377;DHT22;3221;48.858;10.128;2022-12-26T17:38:49;8.20;99.90
6377;DHT22;3221;48.858;10.128;2022-12-26T17:41:16;8.20;99.90
6377;DHT22;3221;48.858;10.128;2022-12-26T17:43:45;8.30;99.90
6377;DHT22;3221;48.858;10.128;2022-12-26T17:46:14;8.20;99.90
6377;DHT22;3221;48.858;10.128;2022-12-26T17:48:42;8.10;99.90
6377;DHT22;3221;48.858;10.128;2022-12-26T17:51:16;8.10;99.90
6377;DHT22;3221;48.858;10.128;2022-12-26T17:53:48;8.10;99.90
6377;DHT22;3221;48.858;10.128;2022-12-26T17:56:20;8.10;99.90
6377;DHT22;3221;48.858;10.128;2022-12-26T17:58:49;8.20;99.90
6377;DHT22;3221;48.858;10.128;2022-12-26T18:01:16;8.10;99.90
6377;DHT22;3221;48.858;10.128;2022-12-26T18:03:48;8.20;99.90
6377;DHT22;3221;48.858;10.128;2022-12-26T18:06:15;8.10;99.90
6377;DHT22;3221;48.858;10.128;2022-12-26T18:08:43;8.10;99.90
6377;DHT22;3221;48.858;10.128;2022-12-26T18:11:12;8.20;99.90
6377;DHT22;3221;48.858;10.128;2022-12-26T18:13:39;8.40;99.90
6377;DHT22;3221;48.858;10.128;2022-12-26T18:16:13;8.20;99.90
6377;DHT22;3221;48.858;10.128;2022-12-26T18:18:43;8.20;99.90
6377;DHT22;3221;48.858;10.128;2022-12-26T18:21:12;8.10;99.90
6377;DHT22;3221;48.858;10.128;2022-12-26T18:23:40;8.20;99.90
6377;DHT22;3221;48.858;10.128;2022-12-26T18:26:21;8.20;99.90
6377;DHT22;3221;48.858;10.128;2022-12-26T18:28:50;8.10;99.90
6377;DHT22;3221;48.858;10.128;2022-12-26T18:31:17;8.30;99.90
6377;DHT22;3221;48.858;10.128;2022-12-26T18:33:44;8.20;99.90
6377;DHT22;3221;48.858;10.128;2022-12-26T18:36:12;8.20;99.90
6377;DHT22;3221;48.858;10.128;2022-12-26T18:38:40;8.20;99.90
6377;DHT22;3221;48.858;10.128;2022-12-26T18:41:12;8.10;99.90
6377;DHT22;3221;48.858;10.128;2022-12-26T18:43:39;8.10;99.90
6377;DHT22;3221;48.858;10.128;2022-12-26T18:46:17;8.10;99.90
6377;DHT22;3221;48.858;10.128;2022-12-26T18:48:44;8.10;99.90
6377;DHT22;3221;48.858;10.128;2022-12-26T18:51:11;8.10;99.90
6377;DHT22;3221;48.858;10.128;2022-12-26T18:53:38;8.10;99.90
6377;DHT22;3221;48.858;10.128;2022-12-26T18:56:06;8.00;99.90
6377;DHT22;3221;48.858;10.128;2022-12-26T18:58:33;8.10;99.90
6377;DHT22;3221;48.858;10.128;2022-12-26T19:01:01;8.10;99.90
6377;DHT22;3221;48.858;10.128;2022-12-26T19:03:29;8.10;99.90
6377;DHT22;3221;48.858;10.128;2022-12-26T19:05:55;8.00;99.90
6377;DHT22;3221;48.858;10.128;2022-12-26T19:08:23;8.00;99.90
6377;DHT22;3221;48.858;10.128;2022-12-26T19:10:50;8.00;99.90
6377;DHT22;3221;48.858;10.128;2022-12-26T19:13:17;8.00;99.90
6377;DHT22;3221;48.858;10.128;2022-12-26T19:15:45;8.00;99.90
6377;DHT22;3221;48.858;10.128;2022-12-26T19:18:12;7.90;99.90
6377;DHT22;3221;48.858;10.128;2022-12-26T19:20:39;7.90;99.90
6377;DHT22;3221;48.858;10.128;2022-12-26T19:23:10;8.00;99.90
6377;DHT22;3221;48.858;10.128;2022-12-26T19:25:37;7.90;99.90
6377;DHT22;3221;48.858;10.128;2022-12-26T19:28:04;7.90;99.90
6377;DHT22;3221;48.858;10.128;2022-12-26T19:30:32;7.80;99.90
6377;DHT22;3221;48.858;10.128;2022-12-26T19:33:05;7.80;99.90
6377;DHT22;3221;48.858;10.128;2022-12-26T19:35:31;7.80;99.90
6377;DHT22;3221;48.858;10.128;2022-12-26T19:37:58;7.80;99.90
6377;DHT22;3221;48.858;10.128;2022-12-26T19:40:25;7.70;99.90
6377;DHT22;3221;48.858;10.128;2022-12-26T19:42:52;7.80;99.90
6377;DHT22;3221;48.858;10.128;2022-12-26T19:45:19;7.70;99.90
6377;DHT22;3221;48.858;10.128;2022-12-26T19:47:46;7.70;99.90
6377;DHT22;3221;48.858;10.128;2022-12-26T19:50:13;7.70;99.90
6377;DHT22;3221;48.858;10.128;2022-12-26T19:52:40;7.60;99.90
6377;DHT22;3221;48.858;10.128;2022-12-26T19:55:10;7.70;99.90
6377;DHT22;3221;48.858;10.128;2022-12-26T19:57:37;7.70;99.90
6377;DHT22;3221;48.858;10.128;2022-12-26T20:00:05;7.70;99.90
6377;DHT22;3221;48.858;10.128;2022-12-26T20:02:37;7.70;99.90
6377;DHT22;3221;48.858;10.128;2022-12-26T20:05:06;7.60;99.90
6377;DHT22;3221;48.858;10.128;2022-12-26T20:07:33;7.60;99.90
6377;DHT22;3221;48.858;10.128;2022-12-26T20:10:00;7.60;99.90
6377;DHT22;3221;48.858;10.128;2022-12-26T20:12:27;7.60;99.90
6377;DHT22;3221;48.858;10.128;2022-12-26T20:14:54;7.70;99.90
6377;DHT22;3221;48.858;10.128;2022-12-26T20:17:20;7.60;99.90
6377;DHT22;3221;48.858;10.128;2022-12-26T20:19:48;7.60;99.90
6377;DHT22;3221;48.858;10.128;2022-12-26T20:22:15;7.70;99.90
6377;DHT22;3221;48.858;10.128;2022-12-26T20:24:42;7.70;99.90
6377;DHT22;3221;48.858;10.128;2022-12-26T20:27:09;7.50;99.90